Data for 11/01/2017

Time Sea-Level Adjusted Pressure Absolute Pressure Temperature Relative Humidity Dew Point   
(mb) (inHg) (mb) (inHg) (C) (F) (%) (C) (F)
00:05 1005 29.68 834 24.63 3.5 38.3 68 -1.9 28.5
00:10 1005 29.68 834 24.63 3.4 38.1 67 -2.1 28.2
00:15 1005 29.68 834 24.63 3.4 38.1 67 -2.2 28
00:20 1005 29.68 834 24.63 3.5 38.3 65 -2.4 27.7
00:25 1005 29.68 834 24.63 3.7 38.6 65 -2.4 27.7
00:30 1005 29.68 834 24.63 3.7 38.7 65 -2.3 27.9
00:35 1005 29.68 834 24.63 3.6 38.5 65 -2.2 28
00:40 1005 29.68 834 24.63 3.7 38.6 65 -2.2 28
00:45 1005 29.68 834 24.63 3.7 38.6 66 -2.1 28.2
00:50 1005 29.68 834 24.63 3.8 38.9 65 -2.1 28.2
00:55 1005 29.68 834 24.63 4 39.3 63 -2.3 27.8
01:00 1005 29.68 834 24.63 3.9 39.1 67 -1.7 28.9
01:05 1004 29.65 834 24.63 3.8 38.8 68 -1.5 29.3
01:10 1004 29.65 834 24.63 3.7 38.7 70 -1.3 29.7
01:15 1005 29.68 834 24.63 3.5 38.4 72 -1 30.2
01:20 1005 29.68 834 24.63 3.3 38 74 -0.8 30.5
01:25 1004 29.65 833 24.6 3.1 37.6 76 -0.8 30.6
01:30 1004 29.65 833 24.6 3.2 37.7 75 -0.9 30.4
01:35 1004 29.65 833 24.6 3.4 38.1 73 -0.9 30.3
01:40 1004 29.65 833 24.6 3.5 38.3 74 -0.8 30.6
01:45 1004 29.65 833 24.6 3.5 38.4 73 -0.8 30.5
01:50 1004 29.65 833 24.6 3.7 38.6 73 -0.7 30.7
01:55 1004 29.65 833 24.6 3.6 38.5 74 -0.6 30.9
02:00 1004 29.65 833 24.6 3.6 38.5 75 -0.5 31.2
02:05 1004 29.65 834 24.63 3.6 38.6 74 -0.5 31.1
02:10 1004 29.65 834 24.63 3.7 38.6 74 -0.6 31
02:15 1004 29.65 834 24.63 3.8 38.8 71 -1.1 30.1
02:20 1004 29.65 833 24.6 4.1 39.4 70 -0.9 30.3
02:25 1004 29.65 833 24.6 4.3 39.7 72 -0.4 31.3
02:30 1004 29.65 833 24.6 4.2 39.6 65 -1.8 28.7
02:35 1004 29.65 833 24.6 4.8 40.7 67 -0.8 30.5
02:40 1004 29.65 833 24.6 4.9 40.8 64 -1.5 29.4
02:45 1003 29.62 833 24.6 5 40.9 62 -1.7 28.9
02:50 1003 29.62 833 24.6 5.1 41.1 62 -1.6 29.1
02:55 1003 29.62 833 24.6 5.2 41.3 61 -1.9 28.7
03:00 1003 29.62 833 24.6 5.5 41.9 57 -2.3 27.8
03:05 1003 29.62 833 24.6 5.7 42.2 57 -2.2 28
03:10 1003 29.62 833 24.6 5.6 42.1 58 -1.9 28.5
03:15 1003 29.62 833 24.6 5.5 41.8 61 -1.4 29.5
03:20 1004 29.65 833 24.6 5.2 41.3 63 -1.2 29.8
03:25 1004 29.65 833 24.6 4.9 40.9 64 -1.3 29.7
03:30 1003 29.62 833 24.6 4.7 40.5 67 -0.9 30.4
03:35 1003 29.62 832 24.57 4.5 40.1 69 -0.8 30.6
03:40 1003 29.62 832 24.57 4.3 39.7 69 -0.9 30.4
03:45 1003 29.62 832 24.57 4.1 39.3 70 -0.8 30.5
03:50 1003 29.62 832 24.57 4 39.1 71 -0.9 30.4
03:55 1003 29.62 832 24.57 3.8 38.8 72 -0.8 30.6
04:00 1003 29.62 832 24.57 3.5 38.3 74 -0.7 30.7
04:05 1003 29.62 832 24.57 3.3 37.9 76 -0.6 30.9
04:10 1003 29.62 832 24.57 3.1 37.6 77 -0.6 30.9
04:15 1003 29.62 832 24.57 3 37.3 77 -0.6 30.9
04:20 1003 29.62 832 24.57 2.8 37.1 79 -0.5 31.1
04:25 1003 29.62 832 24.57 2.8 37 80 -0.3 31.4
04:30 1003 29.62 832 24.57 2.7 36.9 81 -0.2 31.6
04:35 1002 29.59 832 24.57 2.7 36.8 81 -0.2 31.6
04:40 1002 29.59 832 24.57 2.8 37 81 -0.2 31.7
04:45 1003 29.62 832 24.57 2.8 37.1 81 -0.1 31.8
04:50 1003 29.62 832 24.57 2.9 37.2 80 -0.3 31.5
04:55 1003 29.62 832 24.57 3.1 37.6 78 -0.4 31.3
05:00 1003 29.62 832 24.57 3.2 37.8 79 -0.1 31.9
05:05 1003 29.62 832 24.57 3.1 37.7 81 0.2 32.3
05:10 1003 29.62 832 24.57 3 37.4 82 0.2 32.4
05:15 1003 29.62 832 24.57 3.1 37.6 79 -0.1 31.8
05:20 1003 29.62 832 24.57 3.3 37.9 80 0.1 32.3
05:25 1003 29.62 832 24.57 3.2 37.8 81 0.2 32.4
05:30 1003 29.62 832 24.57 3.3 37.9 80 0.2 32.4
05:35 1003 29.62 832 24.57 3.3 37.9 81 0.3 32.5
05:40 1003 29.62 832 24.57 3.3 37.9 79 -0 32
05:45 1003 29.62 832 24.57 3.2 37.7 80 0 32
05:50 1003 29.62 832 24.57 3.1 37.6 81 0.1 32.2
05:55 1003 29.62 832 24.57 3 37.4 81 0.1 32.1
06:00 1003 29.62 832 24.57 2.8 37.1 82 0.1 32.2
06:05 1003 29.62 832 24.57 2.8 37 82 -0 31.9
06:10 1003 29.62 832 24.57 2.7 36.9 83 0.1 32.2
06:15 1003 29.62 832 24.57 2.7 36.8 83 0.1 32.3
06:20 1003 29.62 832 24.57 2.6 36.7 84 0.1 32.2
06:25 1003 29.62 832 24.57 2.5 36.5 84 0 32.1
06:30 1003 29.62 832 24.57 2.4 36.4 84 0.1 32.1
06:35 1003 29.62 832 24.57 2.4 36.3 85 0.1 32.1
06:40 1003 29.62 832 24.57 2.3 36.2 85 0.1 32.1
06:45 1003 29.62 832 24.57 2.2 36 85 -0 32
06:50 1003 29.62 832 24.57 2.1 35.8 86 -0 32
06:55 1003 29.62 832 24.57 2 35.6 86 -0.1 31.8
07:00 1003 29.62 832 24.57 1.8 35.3 86 -0.2 31.6
07:05 1003 29.62 832 24.57 1.6 34.8 87 -0.3 31.4
07:10 1003 29.62 832 24.57 1.2 34.1 89 -0.5 31.1
07:15 1003 29.62 832 24.57 0.9 33.7 89 -0.6 30.9
07:20 1003 29.62 832 24.57 0.7 33.3 90 -0.7 30.7
07:25 1003 29.62 832 24.57 0.6 33 91 -0.8 30.6
07:30 1003 29.62 832 24.57 0.4 32.8 91 -0.8 30.5
07:35 1003 29.62 832 24.57 0.4 32.7 92 -0.8 30.6
07:40 1003 29.62 833 24.6 0.5 32.9 92 -0.7 30.8
07:45 1003 29.62 833 24.6 0.5 32.9 92 -0.6 30.8
07:50 1003 29.62 833 24.6 0.5 32.9 92 -0.7 30.8
07:55 1003 29.62 833 24.6 0.5 32.9 92 -0.7 30.7
08:00 1003 29.62 833 24.6 0.5 32.8 92 -0.7 30.7
08:05 1003 29.62 833 24.6 0.5 32.8 92 -0.7 30.7
08:10 1004 29.65 833 24.6 0.5 32.9 92 -0.7 30.8
08:15 1004 29.65 833 24.6 0.5 32.9 92 -0.7 30.8
08:20 1004 29.65 833 24.6 0.5 32.9 92 -0.7 30.8
08:25 1004 29.65 833 24.6 0.5 32.9 92 -0.7 30.8
08:30 1004 29.65 833 24.6 0.5 32.9 92 -0.7 30.8
08:35 1004 29.65 833 24.6 0.5 32.9 92 -0.7 30.8
08:40 1004 29.65 833 24.6 0.5 32.8 92 -0.7 30.7
08:45 1004 29.65 833 24.6 0.5 32.8 92 -0.7 30.7
08:50 1004 29.65 833 24.6 0.4 32.8 92 -0.8 30.6
08:55 1004 29.65 833 24.6 0.4 32.6 92 -0.8 30.6
09:00 1004 29.65 833 24.6 0.4 32.8 92 -0.7 30.8
09:05 1004 29.65 833 24.6 0.5 32.8 92 -0.7 30.8
09:10 1004 29.65 833 24.6 0.5 33 92 -0.6 30.9
09:15 1004 29.65 833 24.6 0.6 33.1 92 -0.6 31
09:20 1004 29.65 833 24.6 0.6 33.1 92 -0.6 30.9
09:25 1004 29.65 833 24.6 0.6 33.1 92 -0.6 30.9
09:30 1004 29.65 833 24.6 0.5 32.9 91 -0.7 30.7
09:35 1004 29.65 833 24.6 0.4 32.8 92 -0.8 30.6
09:40 1004 29.65 833 24.6 0.4 32.8 92 -0.7 30.7
09:45 1004 29.65 833 24.6 0.4 32.8 92 -0.7 30.7
09:50 1004 29.65 833 24.6 0.4 32.8 92 -0.7 30.8
09:55 1004 29.65 833 24.6 0.5 32.9 92 -0.6 30.9
10:00 1004 29.65 833 24.6 0.6 33.1 92 -0.5 31
10:05 1004 29.65 833 24.6 0.6 33.1 92 -0.5 31
10:10 1004 29.65 833 24.6 0.6 33.1 92 -0.6 30.9
10:15 1004 29.65 833 24.6 0.6 33 92 -0.6 30.9
10:20 1004 29.65 833 24.6 0.5 32.9 92 -0.7 30.8
10:25 1004 29.65 833 24.6 0.5 32.9 92 -0.7 30.8
10:30 1004 29.65 834 24.63 0.4 32.7 92 -0.7 30.7
10:35 1004 29.65 833 24.6 0.4 32.8 92 -0.7 30.8
10:40 1004 29.65 833 24.6 0.4 32.8 93 -0.6 30.8
10:45 1004 29.65 833 24.6 0.6 33 93 -0.5 31.1
10:50 1004 29.65 833 24.6 0.6 33.1 92 -0.5 31.1
10:55 1004 29.65 833 24.6 0.5 33 92 -0.6 31
11:00 1004 29.65 833 24.6 0.6 33.1 93 -0.5 31.1
11:05 1004 29.65 833 24.6 0.8 33.4 92 -0.3 31.4
11:10 1004 29.65 833 24.6 0.9 33.6 92 -0.3 31.5
11:15 1004 29.65 833 24.6 1 33.8 92 -0.2 31.6
11:20 1004 29.65 833 24.6 1 33.7 91 -0.3 31.4
11:25 1004 29.65 833 24.6 0.9 33.7 91 -0.4 31.3
11:30 1004 29.65 833 24.6 1 33.8 91 -0.3 31.4
11:35 1004 29.65 833 24.6 0.9 33.7 90 -0.5 31.1
11:40 1004 29.65 833 24.6 0.9 33.5 90 -0.6 31
11:45 1004 29.65 833 24.6 0.9 33.6 90 -0.6 31
11:50 1004 29.65 834 24.63 0.9 33.5 90 -0.6 31
11:55 1004 29.65 834 24.63 0.9 33.6 90 -0.5 31
12:00 1005 29.68 834 24.63 0.8 33.5 90 -0.6 30.9
12:05 1005 29.68 834 24.63 0.8 33.4 90 -0.7 30.8
12:10 1005 29.68 834 24.63 0.8 33.4 89 -0.8 30.6
12:15 1005 29.68 834 24.63 0.7 33.3 89 -0.9 30.4
12:20 1005 29.68 834 24.63 0.7 33.2 88 -1.1 30
12:25 1005 29.68 834 24.63 0.5 33 89 -1.1 30
12:30 1005 29.68 834 24.63 0.4 32.8 89 -1.2 29.8
12:35 1005 29.68 834 24.63 0.3 32.5 89 -1.3 29.7
12:40 1005 29.68 834 24.63 0.1 32.3 90 -1.3 29.6
12:45 1005 29.68 834 24.63 0.1 32.1 90 -1.3 29.6
12:50 1005 29.68 834 24.63 0.2 32.3 90 -1.3 29.7
12:55 1005 29.68 834 24.63 0.2 32.3 89 -1.4 29.5
13:00 1005 29.68 834 24.63 0.2 32.4 89 -1.4 29.4
13:05 1005 29.68 834 24.63 0.4 32.7 89 -1.3 29.7
13:10 1005 29.68 834 24.63 0.4 32.8 88 -1.3 29.7
13:15 1005 29.68 834 24.63 0.4 32.7 87 -1.5 29.2
13:20 1005 29.68 834 24.63 0.2 32.3 88 -1.6 29.1
13:25 1005 29.68 834 24.63 -0.1 31.9 90 -1.6 29.1
13:30 1005 29.68 834 24.63 -0.1 31.7 90 -1.6 29.1
13:35 1005 29.68 835 24.66 -0.1 31.8 90 -1.6 29.2
13:40 1005 29.68 835 24.66 -0.1 31.9 89 -1.6 29
13:45 1005 29.68 835 24.66 -0.2 31.6 90 -1.7 29
13:50 1006 29.71 835 24.66 -0.2 31.6 90 -1.7 28.9
13:55 1006 29.71 835 24.66 -0.3 31.4 90 -1.8 28.8
14:00 1006 29.71 835 24.66 -0.5 31.2 90 -1.8 28.7
14:05 1006 29.71 835 24.66 -0.5 31.2 91 -1.7 28.9
14:10 1006 29.71 835 24.66 -0.6 31 91 -1.9 28.6
14:15 1006 29.71 835 24.66 -0.7 30.8 92 -1.9 28.6
14:20 1006 29.71 835 24.66 -0.7 30.8 92 -1.9 28.6
14:25 1006 29.71 835 24.66 -0.7 30.8 91 -1.9 28.5
14:30 1006 29.71 836 24.69 -0.9 30.4 91 -2.1 28.2
14:35 1006 29.71 836 24.69 -1 30.1 91 -2.3 27.9
14:40 1006 29.71 836 24.69 -1.1 30 92 -2.3 27.9
14:45 1007 29.74 836 24.69 -1.1 30 92 -2.3 27.8
14:50 1007 29.74 836 24.69 -1.1 30 91 -2.3 27.8
14:55 1007 29.74 836 24.69 -1.1 30.1 92 -2.3 27.9
15:00 1007 29.74 836 24.69 -1 30.1 91 -2.3 27.9
15:05 1007 29.74 836 24.69 -1 30.2 91 -2.3 27.9
15:10 1007 29.74 836 24.69 -1 30.1 91 -2.3 27.8
15:15 1007 29.74 836 24.69 -1 30.2 91 -2.3 27.9
15:20 1007 29.74 836 24.69 -1 30.1 90 -2.5 27.5
15:25 1007 29.74 836 24.69 -1.2 29.8 90 -2.7 27.2
15:30 1007 29.74 836 24.69 -1.5 29.3 90 -2.9 26.8
15:35 1007 29.74 837 24.72 -1.5 29.2 91 -2.8 27
15:40 1007 29.74 837 24.72 -1.4 29.5 90 -2.8 27
15:45 1008 29.77 837 24.72 -1.6 29.1 90 -3 26.7
15:50 1008 29.77 837 24.72 -1.8 28.8 91 -3.1 26.5
15:55 1008 29.77 837 24.72 -1.8 28.8 91 -3.1 26.4
16:00 1008 29.77 837 24.72 -1.8 28.7 90 -3.2 26.2
16:05 1008 29.77 837 24.72 -1.7 28.9 90 -3.1 26.4
16:10 1008 29.77 837 24.72 -1.7 29 90 -3.1 26.4
16:15 1008 29.77 837 24.72 -1.7 29 90 -3.1 26.4
16:20 1008 29.77 837 24.72 -1.8 28.8 90 -3.2 26.3
16:25 1008 29.77 838 24.75 -1.8 28.8 91 -3.1 26.4
16:30 1008 29.77 838 24.75 -1.8 28.8 90 -3.3 26.1
16:35 1008 29.77 838 24.75 -2 28.5 90 -3.4 25.8
16:40 1009 29.8 838 24.75 -2 28.3 90 -3.4 25.9
16:45 1009 29.8 838 24.75 -2 28.4 91 -3.3 26.1
16:50 1009 29.8 838 24.75 -1.9 28.5 91 -3.2 26.3
16:55 1009 29.8 838 24.75 -1.9 28.5 91 -3.2 26.2
17:00 1009 29.8 838 24.75 -2 28.3 91 -3.3 26
17:05 1009 29.8 838 24.75 -2.1 28.2 91 -3.4 25.9
17:10 1009 29.8 838 24.75 -2.3 27.9 91 -3.6 25.5
17:15 1009 29.8 838 24.75 -2.3 27.8 91 -3.7 25.4
17:20 1009 29.8 838 24.75 -2.5 27.6 91 -3.8 25.1
17:25 1009 29.8 838 24.75 -2.5 27.4 91 -3.9 25.1
17:30 1009 29.8 838 24.75 -2.7 27.2 90 -4 24.8
17:35 1009 29.8 838 24.75 -2.6 27.3 90 -4 24.8
17:40 1009 29.8 839 24.78 -2.7 27.1 90 -4.1 24.6
17:45 1009 29.8 839 24.78 -2.8 27 90 -4.2 24.5
17:50 1010 29.83 839 24.78 -2.7 27.2 90 -4.1 24.6
17:55 1010 29.83 839 24.78 -2.7 27.2 90 -4.2 24.5
18:00 1010 29.83 839 24.78 -2.7 27.2 89 -4.2 24.4
18:05 1010 29.83 839 24.78 -2.7 27.2 90 -4.2 24.5
18:10 1010 29.83 839 24.78 -2.7 27.1 89 -4.3 24.3
18:15 1010 29.83 839 24.78 -2.8 27 90 -4.2 24.5
18:20 1010 29.83 839 24.78 -2.6 27.2 89 -4.2 24.5
18:25 1010 29.83 839 24.78 -2.6 27.2 90 -4.1 24.6
18:30 1010 29.83 839 24.78 -2.6 27.3 90 -4 24.7
18:35 1010 29.83 839 24.78 -2.6 27.3 90 -4.1 24.7
18:40 1010 29.83 840 24.81 -2.6 27.4 90 -4 24.9
18:45 1010 29.83 840 24.81 -2.5 27.5 90 -3.9 25
18:50 1010 29.83 840 24.81 -2.5 27.5 90 -3.9 25
18:55 1010 29.83 840 24.81 -2.6 27.4 91 -3.9 25
19:00 1011 29.85 840 24.81 -2.5 27.5 91 -3.8 25.1
19:05 1011 29.85 840 24.81 -2.5 27.6 91 -3.8 25.2
19:10 1011 29.85 840 24.81 -2.5 27.5 90 -3.9 25
19:15 1011 29.85 840 24.81 -2.6 27.3 90 -4 24.7
19:20 1011 29.85 840 24.81 -2.8 27 90 -4.1 24.5
19:25 1011 29.85 840 24.81 -2.7 27.1 90 -4.1 24.6
19:30 1011 29.85 840 24.81 -2.8 26.9 90 -4.2 24.4
19:35 1011 29.85 840 24.81 -2.9 26.9 90 -4.3 24.3
19:40 1011 29.85 840 24.81 -2.9 26.7 91 -4.3 24.3
19:45 1011 29.85 840 24.81 -3 26.7 91 -4.3 24.3
19:50 1011 29.85 840 24.81 -3 26.7 91 -4.3 24.3
19:55 1011 29.85 840 24.81 -3 26.7 91 -4.3 24.3
20:00 1011 29.85 840 24.81 -3 26.6 91 -4.4 24.2
20:05 1011 29.85 840 24.81 -3 26.5 91 -4.4 24.1
20:10 1011 29.85 841 24.83 -3 26.6 91 -4.3 24.3
20:15 1011 29.85 841 24.83 -2.9 26.7 91 -4.3 24.3
20:20 1012 29.88 841 24.83 -3 26.6 91 -4.3 24.3
20:25 1012 29.88 841 24.83 -2.9 26.7 91 -4.3 24.3
20:30 1012 29.88 841 24.83 -2.9 26.7 90 -4.3 24.2
20:35 1012 29.88 841 24.83 -3 26.6 90 -4.4 24.1
20:40 1012 29.88 841 24.83 -3 26.6 90 -4.4 24.1
20:45 1012 29.88 841 24.83 -3 26.6 90 -4.4 24.1
20:50 1012 29.88 841 24.83 -3.2 26.3 90 -4.6 23.7
20:55 1012 29.88 841 24.83 -3.2 26.2 90 -4.6 23.7
21:00 1012 29.88 841 24.83 -3.2 26.2 90 -4.6 23.7
21:05 1012 29.88 841 24.83 -3.2 26.2 90 -4.6 23.7
21:10 1012 29.88 841 24.83 -3.2 26.2 91 -4.5 23.8
21:15 1012 29.88 841 24.83 -3.1 26.4 90 -4.5 23.9
21:20 1012 29.88 841 24.83 -3.1 26.4 90 -4.5 23.9
21:25 1012 29.88 842 24.86 -3.2 26.3 90 -4.6 23.7
21:30 1012 29.88 842 24.86 -3.2 26.2 90 -4.7 23.6
21:35 1012 29.88 842 24.86 -3.3 26 90 -4.7 23.5
21:40 1012 29.88 842 24.86 -3.4 25.9 90 -4.7 23.5
21:45 1012 29.88 842 24.86 -3.4 26 91 -4.6 23.7
21:50 1012 29.88 842 24.86 -3.2 26.2 91 -4.5 23.8
21:55 1012 29.88 842 24.86 -3.2 26.2 90 -4.6 23.8
22:00 1012 29.88 842 24.86 -3.2 26.2 90 -4.6 23.7
22:05 1012 29.88 842 24.86 -3.2 26.2 89 -4.8 23.4
22:10 1012 29.88 842 24.86 -3.4 25.9 90 -4.8 23.4
22:15 1012 29.88 842 24.86 -3.4 25.9 90 -4.8 23.4
22:20 1012 29.88 842 24.86 -3.5 25.8 90 -4.9 23.3
22:25 1012 29.88 842 24.86 -3.6 25.6 91 -4.9 23.2
22:30 1012 29.88 841 24.83 -3.6 25.5 91 -4.9 23.1
22:35 1012 29.88 841 24.83 -3.6 25.5 91 -4.8 23.3
22:40 1012 29.88 841 24.83 -3.5 25.7 90 -4.9 23.2
22:45 1012 29.88 841 24.83 -3.6 25.5 91 -5 23.1
22:50 1012 29.88 841 24.83 -3.6 25.5 91 -4.9 23.2
22:55 1012 29.88 841 24.83 -3.6 25.5 90 -5 22.9
23:00 1012 29.88 841 24.83 -3.7 25.4 90 -5.1 22.9
23:05 1012 29.88 841 24.83 -3.6 25.5 90 -5 22.9
23:10 1012 29.88 841 24.83 -3.6 25.5 90 -5 23
23:15 1012 29.88 841 24.83 -3.6 25.6 90 -5 23
23:20 1012 29.88 841 24.83 -3.6 25.4 90 -5 22.9
23:25 1012 29.88 841 24.83 -3.7 25.3 90 -5.1 22.8
23:30 1012 29.88 841 24.83 -3.8 25.2 91 -5.1 22.8
23:35 1012 29.88 841 24.83 -3.8 25.1 91 -5.2 22.7
23:40 1012 29.88 841 24.83 -3.8 25.1 91 -5.1 22.7
23:45 1012 29.88 841 24.83 -3.8 25.1 90 -5.2 22.7
23:50 1012 29.88 841 24.83 -3.9 25.1 91 -5.2 22.7
23:55 1012 29.88 841 24.83 -3.9 24.9 91 -5.2 22.6
24:00 1012 29.88 841 24.83 -3.9 25 91 -5.1 22.8